Time;durP1;ratioP1;P1;durP2;ratioP2;P2;SDS_P1;SDS_P2;PMS_P1;PMS_P2;Temp;Humidity;BMP_temperature;BMP_pressure;BME280_temperature;BME280_humidity;BME280_pressure;Samples;Min_cycle;Max_cycle;Signal;HPM_P1;HPM_P2
2023/05/27 00:02:07;;;;;;;15.43;4.83;;;9.90;99.90;;;;;;5115526;28;20126;-73
2023/05/27 00:04:33;;;;;;;16.57;4.53;;;9.90;99.90;;;;;;5097421;28;20054;-73
2023/05/27 00:06:59;;;;;;;13.33;3.77;;;10.00;99.90;;;;;;5115359;28;20049;-73
2023/05/27 00:09:25;;;;;;;13.90;4.77;;;10.00;99.90;;;;;;5097531;28;20047;-73
2023/05/27 00:11:50;;;;;;;17.60;4.43;;;10.00;99.90;;;;;;5115166;28;20047;-73
2023/05/27 00:14:17;;;;;;;16.97;4.60;;;9.90;99.90;;;;;;5115467;28;20137;-73
2023/05/27 00:16:43;;;;;;;18.40;4.53;;;9.90;99.90;;;;;;5080291;28;20043;-74
2023/05/27 00:19:09;;;;;;;12.30;4.77;;;9.90;99.90;;;;;;5080189;28;20278;-73
2023/05/27 00:21:35;;;;;;;16.00;4.00;;;9.90;99.90;;;;;;5115471;28;20044;-73
2023/05/27 00:24:01;;;;;;;13.50;4.50;;;9.90;99.90;;;;;;5080172;28;20050;-73
2023/05/27 00:26:27;;;;;;;13.37;4.60;;;9.90;99.90;;;;;;5097135;28;20277;-73
2023/05/27 00:28:52;;;;;;;15.60;4.53;;;9.80;99.90;;;;;;5096908;28;20134;-73
2023/05/27 00:31:18;;;;;;;17.97;4.27;;;9.70;99.90;;;;;;5114929;28;20100;-73
2023/05/27 00:33:44;;;;;;;15.40;4.90;;;9.60;99.90;;;;;;5096510;28;20055;-73
2023/05/27 00:36:10;;;;;;;15.77;4.27;;;9.70;99.90;;;;;;5096960;28;20377;-73
2023/05/27 00:38:36;;;;;;;16.00;4.13;;;9.70;99.90;;;;;;5079842;28;20437;-73
2023/05/27 00:41:04;;;;;;;16.27;4.47;;;9.70;99.90;;;;;;5114549;28;20300;-73
2023/05/27 00:43:30;;;;;;;13.30;4.57;;;9.70;99.90;;;;;;5096633;28;20321;-73
2023/05/27 00:45:56;;;;;;;12.73;4.43;;;9.70;99.90;;;;;;5096359;28;20282;-74
2023/05/27 00:48:22;;;;;;;17.33;5.07;;;9.60;99.90;;;;;;5096772;28;20297;-73
2023/05/27 00:50:48;;;;;;;15.03;3.93;;;9.60;99.90;;;;;;5114413;28;20055;-74
2023/05/27 00:53:15;;;;;;;17.30;4.33;;;9.60;99.90;;;;;;5114967;28;20075;-73
2023/05/27 00:55:41;;;;;;;17.97;4.10;;;9.60;99.90;;;;;;5114620;28;20309;-73
2023/05/27 00:58:09;;;;;;;11.90;4.27;;;9.70;99.90;;;;;;5096016;28;20344;-73
2023/05/27 01:00:37;;;;;;;17.00;4.50;;;9.70;99.90;;;;;;5079739;28;20131;-73
2023/05/27 01:03:04;;;;;;;14.07;4.07;;;9.70;99.90;;;;;;5095319;28;20273;-73
2023/05/27 01:05:30;;;;;;;17.27;4.37;;;9.70;99.90;;;;;;5096366;28;20364;-73
2023/05/27 01:08:21;;;;;;;15.53;4.40;;;9.70;99.90;;;;;;5114197;28;20288;-73
2023/05/27 01:10:53;;;;;;;16.53;4.20;;;9.60;99.90;;;;;;5096267;28;20321;-73
2023/05/27 01:13:40;;;;;;;18.20;5.37;;;9.60;99.90;;;;;;5096161;28;20292;-73
2023/05/27 01:16:11;;;;;;;15.27;4.83;;;9.50;99.90;;;;;;5113896;28;20676;-73
2023/05/27 01:18:40;;;;;;;18.93;4.97;;;9.40;99.90;;;;;;5083362;28;20313;-73
2023/05/27 01:21:10;;;;;;;18.27;4.80;;;9.40;99.90;;;;;;5072163;28;20321;-72
2023/05/27 01:23:39;;;;;;;16.80;5.37;;;9.40;99.90;;;;;;5073437;28;20298;-73
2023/05/27 01:26:05;;;;;;;17.40;4.70;;;9.40;99.90;;;;;;5072220;28;20279;-73
2023/05/27 01:28:31;;;;;;;15.63;4.80;;;9.40;99.90;;;;;;5072280;28;20373;-73
2023/05/27 01:31:17;;;;;;;18.23;4.80;;;9.40;99.90;;;;;;5071979;28;20382;-73
2023/05/27 01:33:55;;;;;;;13.57;3.90;;;9.40;99.90;;;;;;5072304;28;20050;-72
2023/05/27 01:36:24;;;;;;;15.00;4.20;;;9.30;99.90;;;;;;5072286;28;20385;-73
2023/05/27 01:38:51;;;;;;;17.30;4.27;;;9.30;99.90;;;;;;5071831;28;20322;-73
2023/05/27 01:41:17;;;;;;;19.57;4.17;;;9.30;99.90;;;;;;5072023;28;20313;-73
2023/05/27 01:43:43;;;;;;;17.97;4.47;;;9.20;99.90;;;;;;5072193;28;20318;-72
2023/05/27 01:46:09;;;;;;;12.37;3.77;;;9.20;99.90;;;;;;5038497;28;20782;-73
2023/05/27 01:48:35;;;;;;;14.30;4.10;;;9.10;99.90;;;;;;5072019;28;20329;-73
2023/05/27 01:51:01;;;;;;;17.83;4.77;;;9.10;99.90;;;;;;5071740;28;20680;-73
2023/05/27 01:53:26;;;;;;;17.87;5.07;;;9.10;99.90;;;;;;5072078;28;20052;-73
2023/05/27 01:55:52;;;;;;;16.23;4.87;;;9.10;99.90;;;;;;5071964;28;20060;-73
2023/05/27 01:58:18;;;;;;;17.77;5.33;;;9.10;99.90;;;;;;5071806;28;20120;-73
2023/05/27 02:00:43;;;;;;;18.47;4.70;;;9.20;99.90;;;;;;5071908;28;20051;-72
2023/05/27 02:03:09;;;;;;;18.20;5.07;;;9.10;99.90;;;;;;5072545;28;20040;-72
2023/05/27 02:05:35;;;;;;;18.47;6.00;;;9.10;99.90;;;;;;5071917;28;20056;-73
2023/05/27 02:08:02;;;;;;;13.47;4.40;;;9.20;99.90;;;;;;5072631;28;20520;-73
2023/05/27 02:10:28;;;;;;;16.23;4.78;;;9.20;99.90;;;;;;5054899;28;20290;-72
2023/05/27 02:12:54;;;;;;;13.83;5.00;;;9.20;99.90;;;;;;5071543;28;20055;-73
2023/05/27 02:15:23;;;;;;;17.80;5.43;;;9.10;99.90;;;;;;5071405;28;20763;-72
2023/05/27 02:17:54;;;;;;;20.83;5.93;;;9.20;99.90;;;;;;5076048;28;20485;-72
2023/05/27 02:20:23;;;;;;;16.37;5.57;;;9.10;99.90;;;;;;5079621;28;20292;-73
2023/05/27 02:22:52;;;;;;;15.77;4.77;;;9.20;99.90;;;;;;5113279;28;20329;-73
2023/05/27 02:25:18;;;;;;;15.67;5.60;;;9.20;99.90;;;;;;5095096;28;20356;-74
2023/05/27 02:27:48;;;;;;;17.50;5.03;;;9.20;99.90;;;;;;5078430;28;20376;-73
2023/05/27 02:30:14;;;;;;;16.07;5.77;;;9.10;99.90;;;;;;5094732;28;20058;-74
2023/05/27 02:32:40;;;;;;;16.17;4.57;;;9.10;99.90;;;;;;5113028;28;20282;-73
2023/05/27 02:35:07;;;;;;;13.57;4.47;;;9.00;99.90;;;;;;5112923;28;20372;-74
2023/05/27 02:37:33;;;;;;;16.73;5.17;;;9.00;99.90;;;;;;5113144;28;20338;-74
2023/05/27 02:39:59;;;;;;;16.57;4.43;;;8.90;99.90;;;;;;5078103;28;20281;-74
2023/05/27 02:42:25;;;;;;;18.17;5.50;;;8.90;99.90;;;;;;5078404;28;20815;-73
2023/05/27 02:44:50;;;;;;;13.70;4.43;;;8.90;99.90;;;;;;5112874;28;20281;-74
2023/05/27 02:47:16;;;;;;;13.60;4.17;;;8.90;99.90;;;;;;5112794;28;20073;-74
2023/05/27 02:49:42;;;;;;;15.57;4.63;;;9.00;99.90;;;;;;5113078;28;20047;-73
2023/05/27 02:52:07;;;;;;;16.70;4.33;;;9.00;99.90;;;;;;5112763;28;20040;-74
2023/05/27 02:54:33;;;;;;;16.47;4.40;;;8.90;99.90;;;;;;5095112;28;20043;-74
2023/05/27 02:56:59;;;;;;;14.23;4.43;;;8.90;99.90;;;;;;5077651;28;20047;-74
2023/05/27 02:59:25;;;;;;;19.47;5.80;;;9.00;99.90;;;;;;5094854;28;20189;-74
2023/05/27 03:01:50;;;;;;;14.93;4.43;;;9.10;99.90;;;;;;5077938;28;20841;-74
2023/05/27 03:04:16;;;;;;;17.83;4.33;;;9.10;99.90;;;;;;5094284;28;20055;-74
2023/05/27 03:06:42;;;;;;;16.47;4.37;;;9.10;99.90;;;;;;5112965;28;20099;-74
2023/05/27 03:09:08;;;;;;;12.10;3.70;;;9.10;99.90;;;;;;5112495;28;20399;-73
2023/05/27 03:11:34;;;;;;;20.37;4.63;;;9.10;99.90;;;;;;5077841;28;20151;-73
2023/05/27 03:14:00;;;;;;;17.20;4.70;;;9.10;99.90;;;;;;5094196;28;20734;-74
2023/05/27 03:16:25;;;;;;;14.77;4.00;;;9.10;99.90;;;;;;5113246;28;20047;-73
2023/05/27 03:18:51;;;;;;;27.00;5.93;;;9.10;99.90;;;;;;5094480;28;20055;-73
2023/05/27 03:21:17;;;;;;;13.00;4.67;;;9.20;99.90;;;;;;5112512;28;20048;-74
2023/05/27 03:23:42;;;;;;;12.77;3.90;;;9.20;99.90;;;;;;5094747;28;20043;-74
2023/05/27 03:26:08;;;;;;;12.90;4.13;;;9.20;99.90;;;;;;5094526;28;20046;-74
2023/05/27 03:28:34;;;;;;;14.43;4.50;;;9.20;99.90;;;;;;5098447;28;20056;-74
2023/05/27 03:31:00;;;;;;;18.20;4.20;;;9.30;99.90;;;;;;5116202;28;20091;-74
2023/05/27 03:33:25;;;;;;;16.50;4.83;;;9.30;99.90;;;;;;5081397;28;20047;-74
2023/05/27 03:35:51;;;;;;;20.47;4.47;;;9.30;99.90;;;;;;5116290;28;20608;-72
2023/05/27 03:38:18;;;;;;;18.23;4.87;;;9.20;99.90;;;;;;5097761;28;20044;-72
2023/05/27 03:40:44;;;;;;;16.27;4.63;;;9.20;99.90;;;;;;5097976;28;20062;-72
2023/05/27 03:43:09;;;;;;;18.20;5.43;;;9.20;99.90;;;;;;5080917;28;20293;-73
2023/05/27 03:45:35;;;;;;;11.03;4.33;;;9.20;99.90;;;;;;5098004;28;20507;-72
2023/05/27 03:48:01;;;;;;;16.37;4.23;;;9.20;99.90;;;;;;5116124;28;20509;-73
2023/05/27 03:50:27;;;;;;;20.77;4.53;;;9.10;99.90;;;;;;5115803;28;20043;-73
2023/05/27 03:52:52;;;;;;;17.87;4.33;;;9.20;99.90;;;;;;5116017;28;20047;-73
2023/05/27 03:55:20;;;;;;;14.93;4.33;;;9.20;99.90;;;;;;5115481;28;20502;-73
2023/05/27 03:57:46;;;;;;;17.33;4.23;;;9.20;99.90;;;;;;5097418;28;20050;-73
2023/05/27 04:00:12;;;;;;;15.57;4.70;;;9.20;99.90;;;;;;5115374;28;20289;-73
2023/05/27 04:02:39;;;;;;;13.70;4.30;;;9.30;99.90;;;;;;5115816;28;20070;-73
2023/05/27 04:05:04;;;;;;;15.90;4.30;;;9.30;99.90;;;;;;5097953;28;20043;-73
2023/05/27 04:07:31;;;;;;;14.10;4.47;;;9.40;99.90;;;;;;5097396;28;20284;-73
2023/05/27 04:09:57;;;;;;;18.60;4.30;;;9.40;99.90;;;;;;5097421;28;20083;-73
2023/05/27 04:12:23;;;;;;;18.57;5.17;;;9.40;99.90;;;;;;5115167;28;20733;-73
2023/05/27 04:14:49;;;;;;;16.80;4.77;;;9.40;99.90;;;;;;5097488;28;20139;-73
2023/05/27 04:17:15;;;;;;;18.47;5.33;;;9.50;99.90;;;;;;5097180;28;20377;-73
2023/05/27 04:19:41;;;;;;;17.77;3.87;;;9.50;99.90;;;;;;5058894;28;20374;-73
2023/05/27 04:22:07;;;;;;;17.67;5.17;;;9.50;99.90;;;;;;5073399;28;20056;-76
2023/05/27 04:24:33;;;;;;;13.20;3.77;;;9.50;99.90;;;;;;5073648;28;20044;-74
2023/05/27 04:26:59;;;;;;;13.77;4.13;;;9.50;99.90;;;;;;5074478;28;20378;-74
2023/05/27 04:29:25;;;;;;;14.17;4.10;;;9.50;99.90;;;;;;5073418;28;20049;-74
2023/05/27 04:31:50;;;;;;;15.97;4.80;;;9.50;99.90;;;;;;5074917;28;20279;-74
2023/05/27 04:34:16;;;;;;;14.53;4.47;;;9.50;99.90;;;;;;5073022;28;20098;-74
2023/05/27 04:36:43;;;;;;;18.37;4.43;;;9.60;99.90;;;;;;5074309;28;20044;-74
2023/05/27 04:39:11;;;;;;;16.00;4.10;;;9.60;99.90;;;;;;5074169;28;20063;-76
2023/05/27 04:41:39;;;;;;;10.67;4.47;;;9.60;99.90;;;;;;5073122;28;20287;-74
2023/05/27 04:44:06;;;;;;;16.47;4.13;;;9.60;99.90;;;;;;5073055;28;20339;-74
2023/05/27 04:46:31;;;;;;;17.77;4.43;;;9.60;99.90;;;;;;5073145;28;20366;-74
2023/05/27 04:48:57;;;;;;;13.80;4.17;;;9.60;99.90;;;;;;5073056;28;20842;-74
2023/05/27 04:51:23;;;;;;;14.33;4.90;;;9.70;99.90;;;;;;5073919;28;20051;-74
2023/05/27 04:53:49;;;;;;;17.00;5.00;;;9.70;99.90;;;;;;5074131;28;20408;-74
2023/05/27 04:56:17;;;;;;;13.83;4.07;;;9.70;99.90;;;;;;5073716;28;20275;-74
2023/05/27 04:58:46;;;;;;;19.80;5.10;;;9.80;99.90;;;;;;5073771;28;20782;-74
2023/05/27 05:01:21;;;;;;;16.37;5.20;;;9.80;99.90;;;;;;5073804;28;20275;-75
2023/05/27 05:04:11;;;;;;;16.50;4.10;;;9.90;99.90;;;;;;5056688;28;20341;-74
2023/05/27 05:06:38;;;;;;;15.53;4.40;;;10.00;99.90;;;;;;5073663;28;20754;-74
2023/05/27 05:09:04;;;;;;;15.23;4.23;;;10.10;99.90;;;;;;5072472;28;20279;-74
2023/05/27 05:11:30;;;;;;;14.93;4.00;;;10.20;99.90;;;;;;5055938;28;20336;-74
2023/05/27 05:13:55;;;;;;;19.40;4.40;;;10.30;99.90;;;;;;5073693;28;20131;-74
2023/05/27 05:16:21;;;;;;;14.87;4.33;;;10.50;99.90;;;;;;5072399;28;20056;-74
2023/05/27 05:18:47;;;;;;;15.07;4.07;;;10.60;99.90;;;;;;5094378;28;20051;-74
2023/05/27 05:21:12;;;;;;;16.03;4.57;;;10.70;99.90;;;;;;5113925;28;20051;-74
2023/05/27 05:23:39;;;;;;;15.80;4.17;;;10.80;99.90;;;;;;5095779;28;20046;-74
2023/05/27 05:26:08;;;;;;;16.90;4.27;;;10.90;99.90;;;;;;5114221;28;20051;-75
2023/05/27 05:28:34;;;;;;;16.60;4.50;;;11.00;99.90;;;;;;5095686;28;20345;-74
2023/05/27 05:31:00;;;;;;;16.53;4.47;;;11.20;99.90;;;;;;5114036;28;20278;-74
2023/05/27 05:33:26;;;;;;;13.60;4.50;;;11.30;99.90;;;;;;5113681;28;20282;-74
2023/05/27 05:35:52;;;;;;;18.13;3.70;;;11.50;99.90;;;;;;5095766;28;20625;-74
2023/05/27 05:38:18;;;;;;;11.93;3.87;;;11.60;99.90;;;;;;5078546;28;20048;-75
2023/05/27 05:40:48;;;;;;;18.23;4.43;;;11.80;99.90;;;;;;5095736;28;20767;-74
2023/05/27 05:43:14;;;;;;;16.17;4.40;;;12.00;99.90;;;;;;5113844;28;20131;-74
2023/05/27 05:45:40;;;;;;;14.70;4.03;;;12.20;99.90;;;;;;5078659;28;20288;-74
2023/05/27 05:48:05;;;;;;;15.33;3.57;;;12.70;99.90;;;;;;5078900;28;20282;-74
2023/05/27 05:50:32;;;;;;;14.13;3.80;;;13.70;99.90;;;;;;5112683;28;20094;-75
2023/05/27 05:52:58;;;;;;;13.27;3.70;;;14.50;99.90;;;;;;5095803;28;20043;-74
2023/05/27 05:55:27;;;;;;;16.43;4.13;;;14.40;99.90;;;;;;5095208;28;20638;-75
2023/05/27 05:57:52;;;;;;;13.70;3.70;;;14.00;99.90;;;;;;5061872;28;20297;-74
2023/05/27 06:00:18;;;;;;;14.57;4.10;;;13.60;99.90;;;;;;5095460;28;20053;-74
2023/05/27 06:02:44;;;;;;;15.80;4.13;;;13.30;99.90;;;;;;5095234;28;20054;-75
2023/05/27 06:05:10;;;;;;;18.93;4.00;;;13.10;99.90;;;;;;5095266;28;20043;-75
2023/05/27 06:07:36;;;;;;;12.40;4.13;;;13.10;99.90;;;;;;5113233;28;20286;-75
2023/05/27 06:10:02;;;;;;;14.17;3.77;;;13.10;99.90;;;;;;5095413;28;20044;-75
2023/05/27 06:12:27;;;;;;;16.47;4.33;;;13.40;99.90;;;;;;5113185;28;20071;-75
2023/05/27 06:14:53;;;;;;;15.47;4.00;;;13.90;99.90;;;;;;5095179;28;20210;-74
2023/05/27 06:17:19;;;;;;;17.00;4.50;;;14.20;99.90;;;;;;5095049;28;20031;-74
2023/05/27 06:19:44;;;;;;;13.97;4.13;;;14.90;99.90;;;;;;5112566;28;20064;-75
2023/05/27 06:22:10;;;;;;;14.37;4.37;;;15.40;99.90;;;;;;5095450;28;20131;-75
2023/05/27 06:24:36;;;;;;;12.23;4.73;;;15.40;99.90;;;;;;5094885;28;20082;-75
2023/05/27 06:27:02;;;;;;;10.93;3.40;;;15.00;99.90;;;;;;5113068;28;20047;-75
2023/05/27 06:29:27;;;;;;;12.27;4.60;;;14.70;99.90;;;;;;5078191;28;20137;-75
2023/05/27 06:31:54;;;;;;;15.47;4.17;;;14.40;99.90;;;;;;5113077;28;20047;-75
2023/05/27 06:34:20;;;;;;;13.27;3.73;;;14.30;99.90;;;;;;5078465;28;20043;-75
2023/05/27 06:36:48;;;;;;;12.97;3.33;;;14.30;99.90;;;;;;5112513;28;20293;-74
2023/05/27 06:39:15;;;;;;;11.37;3.80;;;14.20;99.90;;;;;;5078658;28;20556;-75
2023/05/27 06:41:41;;;;;;;15.03;3.73;;;14.30;99.90;;;;;;5078127;28;20396;-75
2023/05/27 06:44:07;;;;;;;13.27;3.83;;;14.30;99.90;;;;;;5113098;28;20285;-75
2023/05/27 06:46:32;;;;;;;16.37;3.40;;;14.60;99.90;;;;;;5094634;28;20789;-75
2023/05/27 06:48:58;;;;;;;13.47;3.73;;;15.00;99.90;;;;;;5112857;28;20054;-74
2023/05/27 06:51:24;;;;;;;15.60;4.33;;;16.00;99.90;;;;;;5113055;28;20054;-75
2023/05/27 06:53:49;;;;;;;12.77;3.47;;;16.80;99.90;;;;;;5094984;28;20085;-72
2023/05/27 06:56:15;;;;;;;17.00;4.00;;;17.00;99.90;;;;;;5112637;28;20517;-76
2023/05/27 06:58:41;;;;;;;14.73;3.57;;;17.70;99.90;;;;;;5112557;28;20040;-76
2023/05/27 07:01:07;;;;;;;13.93;4.33;;;17.90;99.90;;;;;;5112960;28;20406;-76
2023/05/27 07:03:33;;;;;;;15.47;3.97;;;17.80;99.90;;;;;;5116455;28;20044;-76
2023/05/27 07:05:59;;;;;;;12.80;3.57;;;17.80;99.90;;;;;;5116915;28;20104;-75
2023/05/27 07:08:24;;;;;;;20.60;4.93;;;18.50;99.90;;;;;;5117059;28;20043;-77
2023/05/27 07:10:50;;;;;;;15.67;4.33;;;19.40;99.90;;;;;;5116550;28;20048;-78
2023/05/27 07:13:16;;;;;;;15.33;4.27;;;19.90;97.90;;;;;;5116964;28;20051;-78
2023/05/27 07:15:42;;;;;;;12.27;3.70;;;20.20;96.30;;;;;;5098276;28;20054;-78
2023/05/27 07:18:08;;;;;;;15.70;4.43;;;20.70;83.00;;;;;;5116159;28;20513;-77
2023/05/27 07:20:34;;;;;;;13.50;4.30;;;21.50;89.90;;;;;;5081497;28;20138;-79
2023/05/27 07:23:00;;;;;;;13.10;4.23;;;22.40;81.60;;;;;;5116940;28;20044;-79
2023/05/27 07:25:26;;;;;;;14.47;4.23;;;22.40;70.30;;;;;;5116552;28;20222;-79
2023/05/27 07:27:52;;;;;;;18.23;5.07;;;21.90;64.30;;;;;;5116146;28;20523;-79
2023/05/27 07:30:17;;;;;;;16.33;4.00;;;21.20;64.20;;;;;;5081477;28;20472;-79
2023/05/27 07:32:43;;;;;;;14.77;4.37;;;21.10;69.10;;;;;;5097871;28;20047;-78
2023/05/27 07:35:09;;;;;;;13.30;4.30;;;21.10;67.50;;;;;;5098525;28;20114;-78
2023/05/27 07:37:35;;;;;;;14.20;4.23;;;21.00;66.20;;;;;;5114485;28;20036;-78
2023/05/27 07:40:01;;;;;;;12.20;3.53;;;20.90;67.10;;;;;;5116298;28;20051;-78
2023/05/27 07:42:26;;;;;;;10.37;4.13;;;21.10;63.60;;;;;;5116146;28;20472;-79
2023/05/27 07:44:55;;;;;;;11.90;4.20;;;21.00;65.70;;;;;;5097579;28;20132;-79
2023/05/27 07:47:20;;;;;;;11.90;3.50;;;20.80;62.00;;;;;;5097971;28;20059;-78
2023/05/27 07:49:46;;;;;;;11.00;3.57;;;21.00;64.80;;;;;;5080944;28;20138;-77
2023/05/27 07:52:12;;;;;;;14.83;4.20;;;21.20;64.00;;;;;;5097907;28;20089;-78
2023/05/27 07:54:38;;;;;;;12.83;4.13;;;21.70;62.00;;;;;;5080943;28;20043;-79
2023/05/27 07:57:06;;;;;;;12.90;4.60;;;21.60;61.10;;;;;;5097684;28;20549;-78
2023/05/27 07:59:32;;;;;;;13.27;3.87;;;21.10;59.20;;;;;;5115771;28;20055;-78
2023/05/27 08:01:57;;;;;;;12.67;3.93;;;21.00;61.20;;;;;;5080697;28;20120;-78
2023/05/27 08:04:23;;;;;;;13.40;3.83;;;20.40;61.60;;;;;;5115609;28;20043;-77
2023/05/27 08:06:49;;;;;;;11.50;3.70;;;20.50;65.20;;;;;;5115255;28;20503;-75
2023/05/27 08:09:15;;;;;;;11.20;3.60;;;20.50;66.20;;;;;;5115676;28;20040;-78
2023/05/27 08:11:41;;;;;;;11.43;3.80;;;20.10;67.60;;;;;;5097164;28;20130;-78
2023/05/27 08:14:07;;;;;;;11.90;4.13;;;19.60;70.90;;;;;;5096827;28;20456;-76
2023/05/27 08:16:33;;;;;;;14.43;3.63;;;19.50;74.90;;;;;;5115382;28;20092;-77
2023/05/27 08:18:58;;;;;;;11.27;4.17;;;19.70;75.00;;;;;;5093349;28;20056;-77
2023/05/27 08:21:24;;;;;;;11.00;4.10;;;19.80;77.50;;;;;;5094342;28;20055;-76
2023/05/27 08:23:50;;;;;;;15.07;4.57;;;20.50;75.30;;;;;;5076994;28;20044;-76
2023/05/27 08:26:16;;;;;;;15.07;4.80;;;20.70;71.00;;;;;;5095045;28;20044;-82
2023/05/27 08:28:41;;;;;;;12.27;3.70;;;21.00;69.40;;;;;;5076746;28;20048;-77
2023/05/27 08:31:07;;;;;;;13.40;4.20;;;21.00;65.60;;;;;;5094762;28;20058;-77
2023/05/27 08:33:33;;;;;;;11.37;4.40;;;20.80;64.50;;;;;;5093650;28;20044;-76
2023/05/27 08:35:59;;;;;;;15.17;4.20;;;20.60;68.30;;;;;;5094639;28;20048;-76
2023/05/27 08:38:24;;;;;;;11.77;4.00;;;20.60;70.40;;;;;;5080963;28;20106;-77
2023/05/27 08:40:50;;;;;;;13.80;4.27;;;20.40;70.50;;;;;;5058751;28;20203;-76
2023/05/27 08:43:17;;;;;;;12.73;4.30;;;20.20;73.90;;;;;;5076625;28;20044;-78
2023/05/27 08:45:43;;;;;;;12.87;4.23;;;19.50;73.10;;;;;;5093118;28;20048;-77
2023/05/27 08:48:10;;;;;;;15.47;4.80;;;19.20;76.10;;;;;;5077076;28;20052;-76
2023/05/27 08:50:36;;;;;;;10.60;4.03;;;19.10;81.10;;;;;;5093591;28;20048;-76
2023/05/27 08:53:03;;;;;;;10.90;4.73;;;19.10;82.00;;;;;;5094257;28;20048;-77
2023/05/27 08:55:32;;;;;;;17.00;5.13;;;19.10;80.70;;;;;;5093462;28;20052;-77
2023/05/27 08:58:01;;;;;;;14.83;4.80;;;18.80;82.80;;;;;;5093164;28;20048;-75
2023/05/27 09:00:27;;;;;;;14.67;4.53;;;18.50;83.80;;;;;;5094321;28;20053;-77
2023/05/27 09:02:59;;;;;;;15.67;4.70;;;18.50;87.70;;;;;;5086789;28;20048;-77
2023/05/27 09:05:25;;;;;;;14.23;4.83;;;18.60;89.60;;;;;;5073429;28;20052;-75
2023/05/27 09:07:51;;;;;;;14.53;5.00;;;18.50;89.00;;;;;;5073887;28;20047;-72
2023/05/27 09:10:17;;;;;;;14.60;4.53;;;18.60;90.10;;;;;;5068796;28;20048;-75
2023/05/27 09:12:47;;;;;;;12.57;5.03;;;18.60;89.80;;;;;;5056036;28;20048;-76
2023/05/27 09:15:13;;;;;;;18.30;4.70;;;18.60;90.00;;;;;;5073717;28;20052;-75
2023/05/27 09:17:46;;;;;;;11.90;4.07;;;18.60;90.50;;;;;;5074322;28;20045;-76
2023/05/27 09:20:12;;;;;;;16.67;4.90;;;18.70;91.60;;;;;;5114546;28;20101;-76
2023/05/27 09:22:41;;;;;;;12.43;4.40;;;18.80;90.70;;;;;;5096096;28;20089;-73
2023/05/27 09:25:08;;;;;;;14.17;4.77;;;18.50;90.30;;;;;;5113065;28;20047;-75
2023/05/27 09:27:33;;;;;;;12.10;4.80;;;18.50;92.00;;;;;;5095829;28;20046;-75
2023/05/27 09:30:07;;;;;;;13.77;4.70;;;18.40;92.70;;;;;;5113929;28;20469;-75
2023/05/27 09:32:33;;;;;;;14.30;4.83;;;18.20;93.30;;;;;;5114152;28;20476;-77
2023/05/27 09:35:00;;;;;;;16.33;4.33;;;18.40;93.70;;;;;;5095818;28;20056;-77
2023/05/27 09:37:34;;;;;;;19.17;5.63;;;18.20;94.10;;;;;;5113806;28;20083;-77
2023/05/27 09:40:14;;;;;;;16.00;4.90;;;18.10;94.50;;;;;;5095368;28;20506;-77
2023/05/27 09:42:48;;;;;;;15.03;4.80;;;17.90;95.00;;;;;;5096228;28;20050;-77
2023/05/27 09:45:23;;;;;;;16.33;5.53;;;17.90;96.50;;;;;;5095772;28;20043;-77
2023/05/27 09:47:53;;;;;;;17.43;5.07;;;17.80;96.70;;;;;;5095157;28;20042;-77
2023/05/27 09:50:21;;;;;;;13.27;5.10;;;17.70;96.90;;;;;;5117770;27;20032;-76
2023/05/27 09:52:48;;;;;;;17.73;5.17;;;17.70;97.90;;;;;;5094890;28;20100;-77
2023/05/27 09:55:16;;;;;;;12.97;4.90;;;17.60;97.50;;;;;;5095563;28;20083;-76
2023/05/27 09:57:42;;;;;;;13.73;5.00;;;17.60;98.20;;;;;;5113535;28;20101;-76
2023/05/27 10:00:17;;;;;;;14.70;5.27;;;17.70;97.90;;;;;;5113318;28;20078;-77
2023/05/27 10:02:45;;;;;;;16.25;5.40;;;17.70;97.80;;;;;;5113488;28;20130;-77
2023/05/27 10:05:13;;;;;;;12.80;4.47;;;17.70;96.90;;;;;;5078260;28;20090;-77
2023/05/27 10:07:41;;;;;;;15.90;5.13;;;17.70;97.80;;;;;;5113577;28;20067;-77
2023/05/27 10:10:11;;;;;;;19.20;5.53;;;17.80;97.60;;;;;;5113167;28;20487;-76
2023/05/27 10:12:41;;;;;;;15.40;5.03;;;17.90;98.90;;;;;;5095555;28;20134;-76
2023/05/27 10:15:08;;;;;;;15.53;5.63;;;17.90;98.20;;;;;;5113054;28;20051;-78
2023/05/27 10:17:57;;;;;;;12.83;4.73;;;17.80;98.40;;;;;;5113110;28;20079;-77
2023/05/27 10:20:34;;;;;;;14.10;5.40;;;17.80;98.80;;;;;;5095409;28;20470;-74
2023/05/27 10:23:15;;;;;;;13.80;4.63;;;17.80;98.40;;;;;;5113080;28;20051;-73
2023/05/27 10:26:30;;;;;;;17.47;5.57;;;17.80;98.60;;;;;;5113077;28;20130;-74
2023/05/27 10:29:08;;;;;;;15.57;5.40;;;17.70;97.90;;;;;;5014009;28;20124;-74
2023/05/27 10:31:36;;;;;;;16.07;5.10;;;17.60;97.30;;;;;;5014520;28;20060;-73
2023/05/27 10:34:06;;;;;;;16.30;5.30;;;17.60;98.20;;;;;;5065554;28;20068;-72
2023/05/27 10:36:32;;;;;;;15.37;5.17;;;17.60;98.70;;;;;;5115086;28;20044;-71
2023/05/27 10:39:16;;;;;;;14.97;5.43;;;17.70;98.90;;;;;;5098213;28;20048;-72
2023/05/27 10:41:56;;;;;;;15.20;5.70;;;17.60;99.00;;;;;;5127650;27;20051;-72
2023/05/27 10:44:29;;;;;;;13.13;4.93;;;17.60;98.50;;;;;;5099090;28;20047;-75
2023/05/27 10:47:13;;;;;;;13.40;4.63;;;17.60;98.90;;;;;;5099166;28;20103;-75
2023/05/27 10:49:40;;;;;;;16.83;5.50;;;17.60;98.80;;;;;;5116990;28;20483;-75
2023/05/27 10:52:12;;;;;;;16.00;5.47;;;17.60;98.60;;;;;;5116796;28;20047;-74
2023/05/27 10:54:40;;;;;;;13.10;5.03;;;17.70;98.50;;;;;;5117069;28;20082;-75
2023/05/27 10:57:07;;;;;;;16.70;4.80;;;17.70;99.10;;;;;;5116497;28;20043;-74
2023/05/27 10:59:49;;;;;;;16.43;5.33;;;17.70;98.80;;;;;;5117040;28;20100;-74
2023/05/27 11:02:15;;;;;;;16.00;5.20;;;17.70;98.90;;;;;;5117098;28;20466;-73
2023/05/27 11:04:42;;;;;;;16.10;5.10;;;17.70;98.30;;;;;;5116949;28;20054;-73
2023/05/27 11:07:07;;;;;;;14.43;5.23;;;17.70;99.50;;;;;;5098569;28;20415;-72
2023/05/27 11:09:53;;;;;;;16.00;5.80;;;17.80;99.40;;;;;;5116646;28;20047;-73
2023/05/27 11:12:24;;;;;;;15.50;4.87;;;17.80;99.70;;;;;;5116610;28;20050;-73
2023/05/27 11:14:54;;;;;;;15.10;5.50;;;17.80;99.00;;;;;;5116725;28;20049;-73
2023/05/27 11:17:21;;;;;;;14.17;4.93;;;17.80;98.30;;;;;;5098107;28;20039;-73
2023/05/27 11:19:49;;;;;;;13.83;4.60;;;17.70;98.30;;;;;;5098043;28;20047;-73
2023/05/27 11:22:16;;;;;;;15.60;5.43;;;17.70;98.20;;;;;;5098186;28;20050;-73
2023/05/27 11:24:43;;;;;;;13.47;5.23;;;17.80;98.80;;;;;;5098684;28;20502;-73
2023/05/27 11:27:10;;;;;;;17.87;5.50;;;17.80;98.80;;;;;;5116310;28;20052;-74
2023/05/27 11:29:37;;;;;;;14.73;6.17;;;17.90;98.30;;;;;;5098409;28;20491;-73
2023/05/27 11:32:07;;;;;;;13.83;5.00;;;17.90;98.00;;;;;;5098255;28;20044;-74
2023/05/27 11:34:36;;;;;;;18.73;5.77;;;17.80;97.50;;;;;;5098100;28;20080;-74
2023/05/27 11:37:07;;;;;;;13.20;5.03;;;17.90;97.60;;;;;;5116007;28;20051;-74
2023/05/27 11:39:32;;;;;;;15.57;4.90;;;17.90;98.10;;;;;;5098132;28;20081;-74
2023/05/27 11:41:58;;;;;;;13.90;5.03;;;18.00;98.60;;;;;;5116088;28;20082;-74
2023/05/27 11:44:25;;;;;;;14.30;4.30;;;18.10;98.80;;;;;;5115984;28;20050;-74
2023/05/27 11:47:01;;;;;;;17.27;5.63;;;18.20;98.50;;;;;;5115314;28;20054;-74
2023/05/27 11:49:28;;;;;;;15.03;5.60;;;18.20;96.50;;;;;;5098214;28;20050;-74
2023/05/27 11:51:58;;;;;;;14.87;5.40;;;18.20;95.40;;;;;;5116093;28;20048;-77
2023/05/27 11:54:27;;;;;;;17.00;5.37;;;18.10;95.90;;;;;;5115699;28;20067;-74
2023/05/27 11:56:54;;;;;;;18.83;6.13;;;18.00;96.30;;;;;;5097795;28;20087;-74
2023/05/27 11:59:22;;;;;;;14.13;4.40;;;18.00;96.60;;;;;;5097444;28;20054;-75
2023/05/27 12:01:49;;;;;;;15.63;5.40;;;18.00;97.50;;;;;;5097668;28;20148;-73
2023/05/27 12:04:15;;;;;;;14.50;5.10;;;18.00;97.80;;;;;;5115609;28;20051;-74
2023/05/27 12:06:41;;;;;;;14.43;4.97;;;18.20;97.90;;;;;;5115746;28;20533;-74
2023/05/27 12:09:10;;;;;;;13.73;4.77;;;18.30;97.60;;;;;;5115386;28;20039;-75
2023/05/27 12:11:37;;;;;;;17.13;6.23;;;18.30;96.10;;;;;;5097356;28;20055;-74
2023/05/27 12:14:03;;;;;;;15.50;5.17;;;18.30;95.20;;;;;;5115319;28;20491;-75
2023/05/27 12:16:29;;;;;;;12.97;4.60;;;18.20;95.50;;;;;;5115326;28;20054;-74
2023/05/27 12:18:54;;;;;;;12.87;4.67;;;18.20;96.00;;;;;;5115347;28;20081;-75
2023/05/27 12:21:21;;;;;;;16.57;4.93;;;18.20;95.90;;;;;;5115215;28;20059;-75
2023/05/27 12:23:47;;;;;;;13.80;4.73;;;18.30;96.80;;;;;;5115605;28;20043;-75
2023/05/27 12:26:14;;;;;;;12.77;4.77;;;18.40;96.00;;;;;;5115041;28;20056;-75
2023/05/27 12:28:41;;;;;;;12.07;4.50;;;18.50;93.30;;;;;;5115150;28;20079;-75
2023/05/27 12:31:07;;;;;;;15.23;4.83;;;18.50;95.20;;;;;;5115075;28;20083;-75
2023/05/27 12:33:32;;;;;;;13.77;4.70;;;18.60;94.50;;;;;;5097048;28;20421;-75
2023/05/27 12:35:59;;;;;;;10.93;4.67;;;18.60;94.40;;;;;;5080308;28;20130;-75
2023/05/27 12:38:25;;;;;;;15.37;4.70;;;18.50;94.20;;;;;;5114794;28;20043;-75
2023/05/27 12:40:51;;;;;;;14.07;5.10;;;18.50;94.50;;;;;;5115075;28;20066;-75
2023/05/27 12:43:20;;;;;;;14.23;5.00;;;18.60;95.00;;;;;;5114688;28;20551;-75